createdAt,value
2019-05-10T00:01:07.539Z,99173.61
2019-05-10T00:03:54.785Z,99190.59
2019-05-10T00:06:42.064Z,99186.00
2019-05-10T00:09:10.749Z,99188.50
2019-05-10T00:11:49.324Z,99188.50
2019-05-10T00:14:23.057Z,99189.56
2019-05-10T00:16:54.201Z,99187.20
2019-05-10T00:19:23.575Z,99188.98
2019-05-10T00:21:52.954Z,99189.22
2019-05-10T00:24:22.390Z,99191.20
2019-05-10T00:26:51.838Z,99191.69
2019-05-10T00:29:21.228Z,99194.28
2019-05-10T00:31:50.636Z,99200.88
2019-05-10T00:34:20.045Z,99196.18
2019-05-10T00:36:49.412Z,99200.42
2019-05-10T00:39:19.574Z,99206.30
2019-05-10T00:41:48.988Z,99199.48
2019-05-10T00:44:18.289Z,99209.37
2019-05-10T00:46:47.821Z,99213.14
2019-05-10T00:49:17.318Z,99211.03
2019-05-10T00:51:46.704Z,99215.48
2019-05-10T00:54:16.083Z,99221.52
2019-05-10T00:56:45.411Z,99220.45
2019-05-10T00:59:14.766Z,99223.37
2019-05-10T01:01:44.091Z,99227.15
2019-05-10T01:04:13.424Z,99231.52
2019-05-10T01:06:42.799Z,99223.98
2019-05-10T01:09:13.692Z,99226.57
2019-05-10T01:11:43.051Z,99229.03
2019-05-10T01:14:12.432Z,99241.29
2019-05-10T01:16:41.820Z,99240.83
2019-05-10T01:19:11.207Z,99244.12
2019-05-10T01:21:40.508Z,99247.64
2019-05-10T01:24:09.922Z,99244.81
2019-05-10T01:26:39.363Z,99249.19
2019-05-10T01:29:08.729Z,99264.25
2019-05-10T01:31:38.219Z,99265.91
2019-05-10T01:34:07.527Z,99258.95
2019-05-10T01:36:37.034Z,99264.86
2019-05-10T01:39:06.959Z,99266.16
2019-05-10T01:41:36.332Z,99270.98
2019-05-10T01:44:05.749Z,99265.31
2019-05-10T01:46:35.152Z,99276.77
2019-05-10T01:49:04.540Z,99263.80
2019-05-10T01:51:33.845Z,99266.28
2019-05-10T01:54:03.145Z,99268.87
2019-05-10T01:56:32.545Z,99272.97
2019-05-10T01:59:02.002Z,99275.81
2019-05-10T02:01:31.474Z,99283.69
2019-05-10T02:04:00.976Z,99289.95
2019-05-10T02:06:30.365Z,99292.87
2019-05-10T02:08:59.751Z,99287.70
2019-05-10T02:11:29.126Z,99298.63
2019-05-10T02:13:58.538Z,99303.48
2019-05-10T02:16:27.920Z,99304.41
2019-05-10T02:18:57.470Z,99310.66
2019-05-10T02:21:27.104Z,99311.47
2019-05-10T02:23:56.469Z,99316.18
2019-05-10T02:26:25.774Z,99312.89
2019-05-10T02:28:55.027Z,99319.92
2019-05-10T02:31:24.329Z,99326.77
2019-05-10T02:33:53.698Z,99330.06
2019-05-10T02:36:23.102Z,99330.18
2019-05-10T02:38:52.538Z,99329.48
2019-05-10T02:41:21.906Z,99331.36
2019-05-10T02:43:51.332Z,99337.22
2019-05-10T02:46:20.781Z,99335.81
2019-05-10T02:48:50.146Z,99341.92
2019-05-10T02:51:19.600Z,99348.14
2019-05-10T02:53:49.197Z,99349.44
2019-05-10T02:56:30.661Z,99354.95
2019-05-10T02:58:50.062Z,99358.13
2019-05-10T03:01:22.320Z,99353.66
2019-05-10T03:03:53.433Z,99361.31
2019-05-10T03:06:24.980Z,99360.58
2019-05-10T03:08:54.337Z,99364.02
2019-05-10T03:11:25.254Z,99371.05
2019-05-10T03:13:54.657Z,99380.59
2019-05-10T03:16:24.120Z,99373.86
2019-05-10T03:18:53.731Z,99375.37
2019-05-10T03:21:24.543Z,99380.22
2019-05-10T03:23:54.079Z,99376.45
2019-05-10T03:26:23.378Z,99377.85
2019-05-10T03:28:52.840Z,99386.47
2019-05-10T03:31:22.320Z,99386.21
2019-05-10T03:33:56.276Z,99388.91
2019-05-10T03:36:22.789Z,99391.39
2019-05-10T03:38:52.362Z,99391.50
2019-05-10T03:41:21.813Z,99400.09
2019-05-10T03:43:51.220Z,99404.08
2019-05-10T03:46:20.596Z,99402.89
2019-05-10T03:48:49.873Z,99409.36
2019-05-10T03:51:19.403Z,99406.02
2019-05-10T03:53:48.844Z,99406.77
2019-05-10T03:56:18.243Z,99414.98
2019-05-10T03:58:47.633Z,99419.60
2019-05-10T04:01:17.005Z,99417.35
2019-05-10T04:03:46.421Z,99428.89
2019-05-10T04:06:15.781Z,99431.38
2019-05-10T04:08:45.267Z,99436.45
2019-05-10T04:11:14.686Z,99431.53
2019-05-10T04:13:44.083Z,99429.75
2019-05-10T04:16:13.492Z,99432.23
2019-05-10T04:18:42.832Z,99431.79
2019-05-10T04:21:12.061Z,99433.64
2019-05-10T04:23:41.498Z,99437.67
2019-05-10T04:26:10.903Z,99437.83
2019-05-10T04:28:40.129Z,99442.42
2019-05-10T04:31:09.428Z,99452.09
2019-05-10T04:33:38.685Z,99452.94
2019-05-10T04:36:12.295Z,99456.93
2019-05-10T04:38:39.143Z,99460.12
2019-05-10T04:41:08.485Z,99466.22
2019-05-10T04:43:37.788Z,99470.00
2019-05-10T04:46:07.080Z,99464.16
2019-05-10T04:48:36.336Z,99471.45
2019-05-10T04:51:05.698Z,99472.59
2019-05-10T04:53:34.929Z,99475.77
2019-05-10T04:56:04.240Z,99473.93
2019-05-10T04:58:33.606Z,99477.86
2019-05-10T05:01:02.971Z,99472.74
2019-05-10T05:03:32.226Z,99482.41
2019-05-10T05:06:01.612Z,99486.70
2019-05-10T05:08:30.851Z,99488.93
2019-05-10T05:11:00.246Z,99490.66
2019-05-10T05:13:29.621Z,99493.09
2019-05-10T05:15:58.900Z,99490.30
2019-05-10T05:18:28.489Z,99498.48
2019-05-10T05:20:57.858Z,99495.23
2019-05-10T05:23:27.161Z,99498.37
2019-05-10T05:25:56.565Z,99500.11
2019-05-10T05:28:25.938Z,99502.91
2019-05-10T05:30:55.233Z,99493.58
2019-05-10T05:33:24.641Z,99500.69
2019-05-10T05:35:54.084Z,99495.39
2019-05-10T05:38:23.435Z,99496.15
2019-05-10T05:40:52.832Z,99501.11
2019-05-10T05:43:22.108Z,99504.22
2019-05-10T05:45:51.449Z,99509.59
2019-05-10T05:48:21.380Z,99508.95
2019-05-10T05:50:51.836Z,99508.25
2019-05-10T05:53:22.520Z,99507.25
2019-05-10T05:55:52.518Z,99505.66
2019-05-10T05:58:29.129Z,99507.45
2019-05-10T06:00:52.891Z,99507.98
2019-05-10T06:03:27.490Z,99505.64
2019-05-10T06:05:53.265Z,99502.13
2019-05-10T06:08:24.848Z,99507.53
2019-05-10T06:10:58.187Z,99504.21
2019-05-10T06:13:30.413Z,99508.72
2019-05-10T06:15:59.625Z,99510.34
2019-05-10T06:18:26.734Z,99518.84
2019-05-10T06:20:58.469Z,99513.69
2019-05-10T06:23:29.317Z,99511.28
2019-05-10T06:25:58.926Z,99515.26
2019-05-10T06:28:56.275Z,99510.80
2019-05-10T06:30:59.214Z,99511.69
2019-05-10T06:33:28.798Z,99509.04
2019-05-10T06:35:58.233Z,99505.52
2019-05-10T06:38:27.609Z,99509.20
2019-05-10T06:40:57.027Z,99517.73
2019-05-10T06:43:26.377Z,99506.61
2019-05-10T06:45:55.883Z,99503.72
2019-05-10T06:48:27.463Z,99498.41
2019-05-10T06:50:56.437Z,99505.17
2019-05-10T06:53:26.621Z,99495.91
2019-05-10T06:55:56.027Z,99497.19
2019-05-10T06:58:25.422Z,99495.44
2019-05-10T07:00:54.743Z,99498.06
2019-05-10T07:03:24.514Z,99501.34
2019-05-10T07:05:53.946Z,99495.73
2019-05-10T07:08:23.362Z,99490.52
2019-05-10T07:10:52.886Z,99490.83
2019-05-10T07:13:22.341Z,99489.75
2019-05-10T07:15:51.757Z,99488.23
2019-05-10T07:18:22.680Z,99480.08
2019-05-10T07:20:52.449Z,99491.05
2019-05-10T07:23:21.897Z,99493.80
2019-05-10T07:25:51.369Z,99496.31
2019-05-10T07:28:20.923Z,99504.32
2019-05-10T07:30:50.386Z,99512.38
2019-05-10T07:33:22.713Z,99510.17
2019-05-10T07:35:52.189Z,99517.41
2019-05-10T07:38:23.534Z,99518.22
2019-05-10T07:40:52.718Z,99513.08
2019-05-10T07:43:26.657Z,99525.65
2019-05-10T07:45:58.709Z,99529.62
2019-05-10T07:48:24.574Z,99521.80
2019-05-10T07:50:54.072Z,99519.07
2019-05-10T07:53:25.240Z,99519.54
2019-05-10T07:56:00.094Z,99520.59
2019-05-10T07:58:25.772Z,99521.41
2019-05-10T08:00:56.182Z,99520.80
2019-05-10T08:03:25.733Z,99527.12
2019-05-10T08:05:58.904Z,99517.36
2019-05-10T08:08:26.154Z,99523.75
2019-05-10T08:10:55.681Z,99525.89
2019-05-10T08:13:25.362Z,99522.00
2019-05-10T08:15:54.568Z,99524.30
2019-05-10T08:18:25.455Z,99523.78
2019-05-10T08:21:01.815Z,99520.80
2019-05-10T08:23:27.994Z,99521.00
2019-05-10T08:25:57.501Z,99518.34
2019-05-10T08:28:27.979Z,99523.23
2019-05-10T08:30:59.099Z,99521.75
2019-05-10T08:33:28.656Z,99534.81
2019-05-10T08:36:04.963Z,99519.99
2019-05-10T08:38:29.097Z,99521.22
2019-05-10T08:40:58.553Z,99529.06
2019-05-10T08:43:30.758Z,99524.80
2019-05-10T08:45:58.902Z,99521.96
2019-05-10T08:48:28.206Z,99521.77
2019-05-10T08:51:03.121Z,99517.18
2019-05-10T08:53:28.614Z,99530.48
2019-05-10T08:55:58.880Z,99529.27
2019-05-10T08:58:36.955Z,99527.44
2019-05-10T09:01:12.166Z,99530.87
2019-05-10T09:03:32.234Z,99539.81
2019-05-10T09:06:11.113Z,99527.70
2019-05-10T09:08:34.878Z,99524.49
2019-05-10T09:11:06.935Z,99530.42
2019-05-10T09:13:41.000Z,99526.15
2019-05-10T09:16:07.554Z,99531.83
2019-05-10T09:18:38.147Z,99540.12
2019-05-10T09:21:09.173Z,99547.05
2019-05-10T09:23:39.088Z,99549.36
2019-05-10T09:26:15.277Z,99534.17
2019-05-10T09:28:39.488Z,99539.64
2019-05-10T09:31:18.694Z,99535.13
2019-05-10T09:33:43.384Z,99526.82
2019-05-10T09:36:12.465Z,99533.75
2019-05-10T09:38:46.397Z,99532.07
2019-05-10T09:41:15.474Z,99546.52
2019-05-10T09:43:49.179Z,99542.61
2019-05-10T09:46:15.896Z,99538.78
2019-05-10T09:48:45.220Z,99532.34
2019-05-10T09:51:19.116Z,99534.67
2019-05-10T09:53:48.553Z,99533.92
2019-05-10T09:56:17.412Z,99539.77
2019-05-10T09:58:48.396Z,99542.59
2019-05-10T10:01:21.610Z,99525.52
2019-05-10T10:03:49.107Z,99529.97
2019-05-10T10:06:18.479Z,99529.33
2019-05-10T10:08:51.264Z,99542.47
2019-05-10T10:11:18.903Z,99534.25
2019-05-10T10:13:51.984Z,99542.65
2019-05-10T10:16:19.338Z,99538.48
2019-05-10T10:18:48.607Z,99526.03
2019-05-10T10:21:27.185Z,99527.20
2019-05-10T10:23:49.475Z,99522.81
2019-05-10T10:26:22.374Z,99526.94
2019-05-10T10:28:54.950Z,99534.31
2019-05-10T10:31:29.607Z,99532.34
2019-05-10T10:33:57.991Z,99538.16
2019-05-10T10:36:22.968Z,99531.46
2019-05-10T10:38:52.454Z,99532.51
2019-05-10T10:41:26.024Z,99522.83
2019-05-10T10:43:52.805Z,99527.56
2019-05-10T10:46:22.068Z,99531.73
2019-05-10T10:48:51.637Z,99536.49
2019-05-10T10:51:20.924Z,99538.97
2019-05-10T10:53:50.401Z,99528.51
2019-05-10T10:56:19.690Z,99530.66
2019-05-10T10:58:50.106Z,99537.62
2019-05-10T11:01:25.176Z,99534.19
2019-05-10T11:03:50.741Z,99523.63
2019-05-10T11:06:20.010Z,99531.67
2019-05-10T11:08:51.658Z,99524.56
2019-05-10T11:11:20.476Z,99513.42
2019-05-10T11:13:57.805Z,99518.81
2019-05-10T11:16:20.854Z,99515.04
2019-05-10T11:18:51.950Z,99511.16
2019-05-10T11:21:28.778Z,99511.99
2019-05-10T11:24:01.257Z,99517.72
2019-05-10T11:26:32.789Z,99505.30
2019-05-10T11:29:01.358Z,99514.25
2019-05-10T11:31:31.266Z,99513.16
2019-05-10T11:34:01.517Z,99512.16
2019-05-10T11:36:31.394Z,99516.98
2019-05-10T11:39:01.653Z,99522.98
2019-05-10T11:41:31.606Z,99520.98
2019-05-10T11:44:05.245Z,99505.00
2019-05-10T11:46:32.371Z,99497.94
2019-05-10T11:49:01.981Z,99505.36
2019-05-10T11:51:31.795Z,99508.88
2019-05-10T11:54:01.185Z,99501.09
2019-05-10T11:56:32.250Z,99499.88
2019-05-10T11:59:02.759Z,99501.81
2019-05-10T12:01:32.317Z,99512.55
2019-05-10T12:04:05.008Z,99504.36
2019-05-10T12:06:32.848Z,99502.03
2019-05-10T12:09:04.672Z,99503.45
2019-05-10T12:11:39.640Z,99500.63
2019-05-10T12:14:04.363Z,99512.67
2019-05-10T12:16:33.820Z,99509.04
2019-05-10T12:19:14.843Z,99514.24
2019-05-10T12:21:34.453Z,99511.08
2019-05-10T12:24:30.784Z,99512.41
2019-05-10T12:29:12.063Z,99515.52
2019-05-10T12:31:37.030Z,99507.76
2019-05-10T12:34:14.246Z,99512.16
2019-05-10T12:36:37.527Z,99511.78
2019-05-10T12:39:08.289Z,99515.73
2019-05-10T12:41:39.951Z,99525.00
2019-05-10T12:44:11.052Z,99515.00
2019-05-10T12:46:42.267Z,99517.14
2019-05-10T12:49:12.110Z,99513.55
2019-05-10T12:51:43.248Z,99504.72
2019-05-10T12:54:12.539Z,99508.52
2019-05-10T12:56:46.218Z,99508.34
2019-05-10T12:59:12.852Z,99517.84
2019-05-10T13:01:42.222Z,99513.15
2019-05-10T13:04:14.634Z,99519.44
2019-05-10T13:06:42.619Z,99519.20
2019-05-10T13:09:11.864Z,99520.73
2019-05-10T13:11:41.220Z,99524.55
2019-05-10T13:14:10.639Z,99534.62
2019-05-10T13:16:39.991Z,99524.25
2019-05-10T13:19:14.301Z,99526.43
2019-05-10T13:21:40.460Z,99528.51
2019-05-10T13:24:09.760Z,99527.78
2019-05-10T13:26:39.261Z,99531.13
2019-05-10T13:29:10.532Z,99533.81
2019-05-10T13:31:42.619Z,99528.66
2019-05-10T13:34:10.894Z,99528.72
2019-05-10T13:36:40.297Z,99536.72
2019-05-10T13:39:09.728Z,99529.77
2019-05-10T13:41:39.132Z,99534.06
2019-05-10T13:44:08.546Z,99530.94
2019-05-10T13:46:55.867Z,99534.38
2019-05-10T13:49:25.189Z,99525.53
2019-05-10T13:51:54.561Z,99521.44
2019-05-10T13:54:23.914Z,99523.22
2019-05-10T13:56:54.995Z,99529.70
2019-05-10T13:59:24.147Z,99526.64
2019-05-10T14:01:53.499Z,99528.02
2019-05-10T14:04:23.311Z,99524.23
2019-05-10T14:06:52.842Z,99522.63
2019-05-10T14:09:22.202Z,99523.86
2019-05-10T14:11:51.587Z,99525.18
2019-05-10T14:14:26.091Z,99525.52
2019-05-10T14:16:52.115Z,99524.84
2019-05-10T14:19:27.543Z,99527.51
2019-05-10T14:21:57.723Z,99521.45
2019-05-10T14:24:26.996Z,99522.84
2019-05-10T14:26:57.116Z,99509.93
2019-05-10T14:29:34.767Z,99517.68
2019-05-10T14:31:58.367Z,99507.02
2019-05-10T14:34:27.661Z,99518.92
2019-05-10T14:36:56.956Z,99504.41
2019-05-10T14:39:26.349Z,99509.77
2019-05-10T14:41:55.846Z,99507.30
2019-05-10T14:44:25.158Z,99512.97
2019-05-10T14:46:54.497Z,99515.77
2019-05-10T14:49:23.877Z,99507.86
2019-05-10T14:51:58.952Z,99509.96
2019-05-10T14:54:24.220Z,99517.56
2019-05-10T14:56:54.206Z,99516.62
2019-05-10T14:59:23.733Z,99514.45
2019-05-10T15:01:53.162Z,99516.47
2019-05-10T15:04:43.787Z,99519.84
2019-05-10T15:06:53.702Z,99526.94
2019-05-10T15:09:24.178Z,99521.95
2019-05-10T15:11:53.666Z,99518.32
2019-05-10T15:14:23.054Z,99524.48
2019-05-10T15:16:52.521Z,99523.88
2019-05-10T15:19:26.295Z,99523.88
2019-05-10T15:21:53.043Z,99529.86
2019-05-10T15:24:22.474Z,99545.23
2019-05-10T15:26:51.697Z,99539.55
2019-05-10T15:29:22.210Z,99547.86
2019-05-10T15:31:52.034Z,99549.77
2019-05-10T15:34:21.316Z,99556.87
2019-05-10T15:36:50.717Z,99553.05
2019-05-10T15:39:23.167Z,99556.02
2019-05-10T15:41:53.677Z,99553.17
2019-05-10T15:44:30.264Z,99549.58
2019-05-10T15:46:53.733Z,99556.77
2019-05-10T15:49:36.215Z,99550.70
2019-05-10T15:52:17.433Z,99553.88
2019-05-10T15:54:44.128Z,99560.83
2019-05-10T15:57:08.691Z,99558.67
2019-05-10T15:59:37.956Z,99556.42
2019-05-10T16:02:07.583Z,99554.12
2019-05-10T16:04:37.072Z,99555.52
2019-05-10T16:07:09.286Z,99555.42
2019-05-10T16:09:37.502Z,99562.11
2019-05-10T16:12:08.697Z,99554.62
2019-05-10T16:14:39.246Z,99561.39
2019-05-10T16:17:10.529Z,99562.15
2019-05-10T16:19:40.153Z,99561.89
2019-05-10T16:22:09.527Z,99558.75
2019-05-10T16:24:39.837Z,99553.30
2019-05-10T16:27:09.217Z,99557.20
2019-05-10T16:29:41.399Z,99556.05
2019-05-10T16:32:10.929Z,99558.95
2019-05-10T16:34:40.353Z,99567.33
2019-05-10T16:37:09.800Z,99566.58
2019-05-10T16:39:39.104Z,99566.87
2019-05-10T16:42:08.498Z,99559.25
2019-05-10T16:44:37.854Z,99566.00
2019-05-10T16:47:07.264Z,99561.27
2019-05-10T16:49:36.666Z,99566.07
2019-05-10T16:52:06.030Z,99564.27
2019-05-10T16:54:35.315Z,99561.13
2019-05-10T16:57:04.813Z,99561.83
2019-05-10T16:59:35.260Z,99556.39
2019-05-10T17:02:06.563Z,99568.20
2019-05-10T17:04:39.394Z,99571.64
2019-05-10T17:07:12.807Z,99566.55
2019-05-10T17:09:39.116Z,99570.34
2019-05-10T17:12:08.492Z,99571.02
2019-05-10T17:14:37.922Z,99577.58
2019-05-10T17:17:07.306Z,99581.34
2019-05-10T17:19:36.657Z,99585.56
2019-05-10T17:22:06.033Z,99586.02
2019-05-10T17:24:35.541Z,99593.09
2019-05-10T17:27:04.924Z,99597.14
2019-05-10T17:29:34.295Z,99599.57
2019-05-10T17:32:03.685Z,99598.38
2019-05-10T17:34:33.044Z,99593.22
2019-05-10T17:37:02.424Z,99598.07
2019-05-10T17:39:34.023Z,99599.00
2019-05-10T17:42:04.655Z,99605.84
2019-05-10T17:44:33.980Z,99611.35
2019-05-10T17:47:03.316Z,99615.09
2019-05-10T17:49:32.670Z,99618.80
2019-05-10T17:52:02.031Z,99625.45
2019-05-10T17:54:33.593Z,99624.70
2019-05-10T17:57:02.632Z,99625.31
2019-05-10T17:59:31.906Z,99625.91
2019-05-10T18:02:01.299Z,99626.52
2019-05-10T18:04:30.788Z,99632.04
2019-05-10T18:07:00.360Z,99630.60
2019-05-10T18:09:29.763Z,99638.19
2019-05-10T18:11:59.732Z,99643.37
2019-05-10T18:14:29.731Z,99638.44
2019-05-10T18:16:59.338Z,99645.63
2019-05-10T18:19:28.699Z,99650.29
2019-05-10T18:22:00.841Z,99648.76
2019-05-10T18:24:30.126Z,99645.56
2019-05-10T18:27:00.152Z,99652.40
2019-05-10T18:29:29.592Z,99657.72
2019-05-10T18:31:59.049Z,99656.84
2019-05-10T18:34:33.391Z,99659.61
2019-05-10T18:36:59.361Z,99663.97
2019-05-10T18:39:28.750Z,99667.22
2019-05-10T18:41:58.108Z,99672.60
2019-05-10T18:44:27.482Z,99671.38
2019-05-10T18:46:56.757Z,99676.75
2019-05-10T18:49:26.191Z,99681.77
2019-05-10T18:52:03.552Z,99679.30
2019-05-10T18:54:26.694Z,99685.10
2019-05-10T18:56:57.063Z,99687.47
2019-05-10T18:59:26.427Z,99690.58
2019-05-10T19:01:55.881Z,99687.55
2019-05-10T19:04:25.082Z,99695.72
2019-05-10T19:07:09.258Z,99701.33
2019-05-10T19:09:25.802Z,99702.77
2019-05-10T19:11:55.285Z,99705.13
2019-05-10T19:14:29.547Z,99705.67
2019-05-10T19:16:55.752Z,99704.70
2019-05-10T19:19:25.065Z,99717.59
2019-05-10T19:21:54.376Z,99726.84
2019-05-10T19:24:24.266Z,99718.11
2019-05-10T19:26:54.861Z,99717.44
2019-05-10T19:29:27.459Z,99723.80
2019-05-10T19:31:56.199Z,99724.47
2019-05-10T19:34:25.796Z,99725.98
2019-05-10T19:36:55.088Z,99730.77
2019-05-10T19:39:24.592Z,99729.36
2019-05-10T19:42:03.060Z,99741.03
2019-05-10T19:44:25.110Z,99737.73
2019-05-10T19:46:55.503Z,99741.66
2019-05-10T19:49:24.863Z,99748.50
2019-05-10T19:51:54.443Z,99748.31
2019-05-10T19:54:25.217Z,99747.73
2019-05-10T19:56:55.347Z,99748.45
2019-05-10T19:59:25.141Z,99747.64
2019-05-10T20:01:54.654Z,99752.68
2019-05-10T20:04:24.096Z,99747.44
2019-05-10T20:06:53.471Z,99747.11
2019-05-10T20:09:22.962Z,99749.66
2019-05-10T20:11:52.332Z,99753.11
2019-05-10T20:14:21.810Z,99755.66
2019-05-10T20:16:53.229Z,99747.17
2019-05-10T20:19:22.347Z,99746.16
2019-05-10T20:21:51.792Z,99756.49
2019-05-10T20:24:22.053Z,99757.73
2019-05-10T20:27:04.033Z,99756.55
2019-05-10T20:29:47.536Z,99756.32
2019-05-10T20:32:24.056Z,99758.63
2019-05-10T20:35:07.183Z,99765.16
2019-05-10T20:37:40.708Z,99765.06
2019-05-10T20:40:26.480Z,99765.37
2019-05-10T20:42:57.149Z,99774.99
2019-05-10T20:45:26.593Z,99781.52
2019-05-10T20:47:56.034Z,99780.80
2019-05-10T20:50:25.391Z,99781.17
2019-05-10T20:52:54.786Z,99784.50
2019-05-10T20:55:24.307Z,99786.53
2019-05-10T20:57:53.652Z,99788.21
2019-05-10T21:00:24.107Z,99787.52
2019-05-10T21:02:53.850Z,99794.89
2019-05-10T21:05:23.235Z,99796.31
2019-05-10T21:07:52.868Z,99793.59
2019-05-10T21:10:22.316Z,99798.95
2019-05-10T21:12:51.705Z,99799.89
2019-05-10T21:15:21.084Z,99799.20
2019-05-10T21:17:50.793Z,99804.31
2019-05-10T21:20:20.183Z,99804.06
2019-05-10T21:22:49.578Z,99805.12
2019-05-10T21:25:19.104Z,99811.17
2019-05-10T21:27:48.578Z,99807.39
2019-05-10T21:30:17.956Z,99819.45
2019-05-10T21:32:52.122Z,99819.33
2019-05-10T21:35:22.198Z,99816.73
2019-05-10T21:37:51.564Z,99827.13
2019-05-10T21:40:21.005Z,99822.77
2019-05-10T21:42:50.373Z,99824.77
2019-05-10T21:45:19.699Z,99838.39
2019-05-10T21:47:51.499Z,99839.69
2019-05-10T21:50:20.152Z,99828.33
2019-05-10T21:52:49.834Z,99842.77
2019-05-10T21:55:19.260Z,99839.42
2019-05-10T21:57:48.567Z,99836.81
2019-05-10T22:00:19.970Z,99834.11
2019-05-10T22:02:49.493Z,99834.67
2019-05-10T22:05:19.056Z,99831.61
2019-05-10T22:07:48.466Z,99838.09
2019-05-10T22:10:20.121Z,99839.73
2019-05-10T22:12:49.509Z,99838.55
2019-05-10T22:15:19.060Z,99841.16
2019-05-10T22:17:48.496Z,99840.09
2019-05-10T22:20:17.870Z,99839.22
2019-05-10T22:22:47.552Z,99847.95
2019-05-10T22:25:16.935Z,99848.18
2019-05-10T22:27:46.472Z,99845.70
2019-05-10T22:30:16.885Z,99844.88
2019-05-10T22:32:46.199Z,99842.84
2019-05-10T22:35:15.576Z,99845.81
2019-05-10T22:37:44.967Z,99844.03
2019-05-10T22:40:14.343Z,99850.19
2019-05-10T22:42:46.629Z,99853.61
2019-05-10T22:45:19.138Z,99851.13
2019-05-10T22:47:48.497Z,99852.53
2019-05-10T22:50:18.095Z,99846.03
2019-05-10T22:52:47.580Z,99849.23
2019-05-10T22:55:17.251Z,99844.82
2019-05-10T22:57:46.476Z,99845.53
2019-05-10T23:00:16.874Z,99844.23
2019-05-10T23:02:46.276Z,99853.44
2019-05-10T23:05:15.643Z,99853.19
2019-05-10T23:07:44.996Z,99860.39
2019-05-10T23:10:15.167Z,99858.61
2019-05-10T23:12:44.964Z,99863.80
2019-05-10T23:15:14.637Z,99863.69
2019-05-10T23:17:44.119Z,99870.19
2019-05-10T23:20:13.705Z,99877.65
2019-05-10T23:22:43.136Z,99878.69
2019-05-10T23:25:13.355Z,99882.22
2019-05-10T23:27:42.901Z,99878.91
2019-05-10T23:30:12.658Z,99875.83
2019-05-10T23:32:41.939Z,99875.61
2019-05-10T23:35:11.342Z,99873.94
2019-05-10T23:37:40.719Z,99881.25
2019-05-10T23:40:10.788Z,99881.36
2019-05-10T23:42:40.201Z,99886.89
2019-05-10T23:45:09.983Z,99887.12
2019-05-10T23:47:39.278Z,99885.00
2019-05-10T23:50:09.081Z,99887.59
2019-05-10T23:52:38.465Z,99890.67
2019-05-10T23:55:08.625Z,99885.00
2019-05-10T23:57:38.021Z,99887.12
